Time;durP1;ratioP1;P1;durP2;ratioP2;P2;SDS_P1;SDS_P2;PMS_P1;PMS_P2;Temp;Humidity;BMP_temperature;BMP_pressure;BME280_temperature;BME280_humidity;BME280_pressure;Samples;Min_cycle;Max_cycle;Signal;HPM_P1;HPM_P2
2023/04/28 00:02:55;;;;;;;10.47;9.63;;;;;;;20.58;34.91;95241.91;5893589;29;109823;-61
2023/04/28 00:05:59;;;;;;;10.90;9.90;;;;;;;20.57;34.85;95246.44;5908991;29;108918;-61
2023/04/28 00:09:02;;;;;;;10.70;9.83;;;;;;;20.59;34.60;95248.81;5907341;29;109045;-62
2023/04/28 00:12:07;;;;;;;10.97;9.97;;;;;;;20.58;35.03;95253.34;5900160;29;109505;-61
2023/04/28 00:15:12;;;;;;;10.43;9.53;;;;;;;20.58;34.93;95247.22;5902093;29;109009;-61
2023/04/28 00:18:15;;;;;;;9.93;9.13;;;;;;;20.57;35.01;95249.09;5925505;29;109363;-60
2023/04/28 00:21:18;;;;;;;9.40;8.60;;;;;;;20.57;34.95;95245.66;5896863;29;108919;-60
2023/04/28 00:24:21;;;;;;;8.80;8.10;;;;;;;20.54;34.89;95244.38;5896287;29;109019;-62
2023/04/28 00:27:26;;;;;;;9.80;9.00;;;;;;;20.56;34.89;95252.06;5883774;29;110640;-60
2023/04/28 00:30:30;;;;;;;9.53;8.73;;;;;;;20.53;34.66;95240.13;5902461;29;108963;-60
2023/04/28 00:33:33;;;;;;;9.53;8.73;;;;;;;20.56;34.92;95244.06;5894507;29;109085;-60
2023/04/28 00:36:39;;;;;;;8.80;8.00;;;;;;;20.53;34.87;95248.09;5880708;29;109369;-64
2023/04/28 00:39:45;;;;;;;8.83;8.13;;;;;;;20.53;34.84;95255.28;5902657;29;108929;-61
2023/04/28 00:42:50;;;;;;;8.97;8.27;;;;;;;20.53;34.91;95252.63;5896464;29;109003;-61
2023/04/28 00:45:53;;;;;;;8.63;7.93;;;;;;;20.50;34.84;95254.00;5902007;29;108929;-61
2023/04/28 00:48:57;;;;;;;7.80;7.20;;;;;;;20.52;34.97;95254.50;5888562;29;109130;-61
2023/04/28 00:52:04;;;;;;;7.73;7.03;;;;;;;20.52;34.55;95254.50;5902169;29;108980;-60
2023/04/28 00:55:09;;;;;;;8.20;7.50;;;;;;;20.52;35.00;95253.72;5906871;29;108895;-60
2023/04/28 00:58:14;;;;;;;7.60;6.97;;;;;;;20.51;34.70;95254.78;5905842;29;109792;-62
2023/04/28 01:01:18;;;;;;;7.63;7.00;;;;;;;20.50;34.65;95258.50;5892126;29;110045;-60
2023/04/28 01:04:21;;;;;;;7.40;6.80;;;;;;;20.51;34.64;95260.91;5902104;29;108976;-60
2023/04/28 01:07:25;;;;;;;6.93;6.33;;;;;;;20.48;34.69;95256.16;5912700;29;109082;-60
2023/04/28 01:10:28;;;;;;;6.90;6.30;;;;;;;20.47;34.94;95269.72;5898191;29;108977;-60
2023/04/28 01:13:33;;;;;;;6.60;6.00;;;;;;;20.49;34.71;95267.56;5896641;29;108884;-60
2023/04/28 01:16:37;;;;;;;6.90;6.40;;;;;;;20.45;34.54;95264.69;5891142;29;109172;-61
2023/04/28 01:19:40;;;;;;;6.53;5.83;;;;;;;20.49;34.61;95265.69;5905717;29;110027;-61
2023/04/28 01:22:43;;;;;;;6.00;5.50;;;;;;;20.46;34.48;95260.16;5886262;29;110870;-60
2023/04/28 01:25:48;;;;;;;6.77;6.17;;;;;;;20.46;34.75;95270.81;5898791;29;109386;-61
2023/04/28 01:28:51;;;;;;;6.77;6.17;;;;;;;20.46;34.62;95270.81;5905782;29;109030;-62
2023/04/28 01:31:54;;;;;;;6.70;6.00;;;;;;;20.46;34.58;95276.13;5903697;29;110115;-61
2023/04/28 01:34:57;;;;;;;6.77;6.13;;;;;;;20.45;34.58;95275.34;5899101;29;108995;-59
2023/04/28 01:38:00;;;;;;;6.63;6.07;;;;;;;20.46;34.56;95278.78;5911744;29;108917;-60
2023/04/28 01:41:05;;;;;;;6.07;5.57;;;;;;;20.43;34.61;95276.69;5906625;29;109380;-60
2023/04/28 01:44:08;;;;;;;5.87;5.37;;;;;;;20.43;34.61;95271.38;5919710;29;108957;-61
2023/04/28 01:47:12;;;;;;;6.07;5.57;;;;;;;20.43;34.56;95276.69;5909190;29;109052;-60
2023/04/28 01:50:15;;;;;;;5.80;5.27;;;;;;;20.44;34.54;95272.97;5907240;29;108985;-63
2023/04/28 01:53:19;;;;;;;5.50;5.10;;;;;;;20.46;34.57;95276.13;5905311;29;108921;-60
2023/04/28 01:56:23;;;;;;;5.17;4.77;;;;;;;20.43;34.49;95274.03;5895090;29;109012;-61
2023/04/28 01:59:27;;;;;;;5.27;4.87;;;;;;;20.43;34.78;95274.03;5902784;29;109347;-61
2023/04/28 02:02:30;;;;;;;5.13;4.73;;;;;;;20.45;34.60;95272.66;5904056;29;108942;-60
2023/04/28 02:05:33;;;;;;;5.13;4.73;;;;;;;20.46;34.38;95274.25;5907044;29;109126;-62
2023/04/28 02:08:36;;;;;;;4.90;4.50;;;;;;;20.47;34.66;95272.38;5907631;29;109056;-61
2023/04/28 02:11:40;;;;;;;4.67;4.00;;;;;;;20.43;34.15;95272.19;5899528;29;108857;-65
2023/04/28 02:14:44;;;;;;;4.47;4.17;;;;;;;20.41;34.56;95274.34;5897243;29;108986;-61
2023/04/28 02:17:47;;;;;;;4.60;4.20;;;;;;;20.43;34.47;95277.50;5903597;29;109103;-61
2023/04/28 02:20:50;;;;;;;4.90;4.47;;;;;;;20.41;34.51;95284.97;5893800;29;108899;-61
2023/04/28 02:23:53;;;;;;;4.50;4.20;;;;;;;20.42;34.20;95285.75;5904604;29;108996;-59
2023/04/28 02:26:58;;;;;;;4.30;3.90;;;;;;;20.40;34.34;95288.72;5911395;29;108970;-60
2023/04/28 02:30:01;;;;;;;4.63;4.23;;;;;;;20.42;34.55;95294.53;5898756;29;108880;-60
2023/04/28 02:33:04;;;;;;;3.90;3.60;;;;;;;20.38;34.49;95285.56;5886672;29;109125;-60
2023/04/28 02:36:08;;;;;;;4.40;4.10;;;;;;;20.40;34.38;95293.22;5895467;29;109059;-61
2023/04/28 02:39:12;;;;;;;4.30;4.00;;;;;;;20.42;34.51;95291.06;5895751;29;108937;-60
2023/04/28 02:42:16;;;;;;;4.40;4.07;;;;;;;20.42;34.59;95294.53;5886359;29;109246;-60
2023/04/28 02:45:20;;;;;;;4.77;3.97;;;;;;;20.40;34.44;95298.53;5895664;29;109046;-60
2023/04/28 02:48:23;;;;;;;4.50;3.47;;;;;;;20.44;34.61;95296.88;5902521;29;109344;-60
2023/04/28 02:51:26;;;;;;;4.83;3.20;;;;;;;20.41;34.29;95298.25;5914315;29;108975;-61
2023/04/28 02:54:29;;;;;;;3.33;3.03;;;;;;;20.42;34.39;95307.03;5889109;29;109879;-63
2023/04/28 02:57:34;;;;;;;3.70;3.37;;;;;;;20.39;34.53;95307.59;5906769;29;108981;-60
2023/04/28 03:00:37;;;;;;;3.90;3.60;;;;;;;20.40;34.13;95309.97;5901566;29;109067;-61
2023/04/28 03:03:40;;;;;;;4.10;3.73;;;;;;;20.39;34.42;95312.91;5894882;29;109049;-61
2023/04/28 03:06:43;;;;;;;4.93;3.40;;;;;;;20.36;34.59;95310.84;5883273;29;109348;-60
2023/04/28 03:09:47;;;;;;;4.90;3.40;;;;;;;20.37;34.21;95320.38;5899066;29;108955;-60
2023/04/28 03:12:51;;;;;;;5.10;3.70;;;;;;;20.44;34.47;95320.81;5901423;29;109022;-61
2023/04/28 03:15:55;;;;;;;3.93;3.17;;;;;;;20.52;34.26;95312.19;5886716;29;109109;-62
2023/04/28 03:18:58;;;;;;;5.33;3.10;;;;;;;20.57;34.41;95322.75;5893048;29;109053;-62
2023/04/28 03:22:01;;;;;;;168.20;152.30;;;;;;;20.55;34.58;95322.25;5905439;29;109192;-61
2023/04/28 03:25:05;;;;;;;196.03;177.47;;;;;;;20.53;35.25;95324.41;5903191;29;109003;-62
2023/04/28 03:28:10;;;;;;;81.80;73.80;;;;;;;20.51;34.71;95338.00;5902911;29;108984;-62
2023/04/28 03:31:13;;;;;;;116.87;105.13;;;;;;;20.51;34.82;95334.53;5902044;29;108904;-62
2023/04/28 03:34:16;;;;;;;115.27;103.30;;;;;;;20.48;34.71;95337.75;5906358;29;109048;-62
2023/04/28 03:37:20;;;;;;;105.47;95.17;;;;;;;20.47;35.25;95346.81;5912933;29;108905;-62
2023/04/28 03:40:23;;;;;;;108.20;97.47;;;;;;;20.47;34.97;95352.13;5890721;29;109255;-62
2023/04/28 03:43:27;;;;;;;98.63;88.83;;;;;;;20.48;35.16;95353.72;5903175;29;108922;-61
2023/04/28 03:46:30;;;;;;;46.53;42.03;;;;;;;20.11;32.22;95355.22;5905064;29;108925;-62
2023/04/28 03:49:34;;;;;;;50.40;36.27;;;;;;;20.02;32.85;95356.94;5886904;29;109003;-64
2023/04/28 03:52:37;;;;;;;52.87;47.57;;;;;;;20.13;34.23;95362.91;5902310;29;109000;-64
2023/04/28 03:55:40;;;;;;;57.17;51.47;;;;;;;20.25;33.91;95366.78;5911621;29;108982;-64
2023/04/28 03:58:45;;;;;;;52.20;46.90;;;;;;;20.28;33.98;95376.81;5906584;29;109045;-64
2023/04/28 04:01:48;;;;;;;47.63;42.60;;;;;;;20.28;33.13;95382.13;5892894;29;109208;-64
2023/04/28 04:04:51;;;;;;;25.37;23.07;;;;;;;20.25;32.00;95388.03;5910072;29;109009;-64
2023/04/28 04:07:55;;;;;;;14.50;13.03;;;;;;;20.20;32.50;95393.38;5923605;29;109303;-65
2023/04/28 04:10:57;;;;;;;14.17;11.90;;;;;;;20.17;30.99;95393.97;5906747;29;109230;-65
2023/04/28 04:14:02;;;;;;;14.40;13.00;;;;;;;20.19;30.41;95402.44;5892499;29;109126;-64
2023/04/28 04:17:05;;;;;;;13.43;12.20;;;;;;;20.26;30.80;95404.78;5900031;29;108958;-62
2023/04/28 04:20:09;;;;;;;11.90;9.43;;;;;;;20.23;30.69;95403.44;5905549;29;108904;-62
2023/04/28 04:23:12;;;;;;;8.30;7.50;;;;;;;20.17;30.31;95403.81;5923733;29;108913;-62
2023/04/28 04:26:15;;;;;;;9.63;8.73;;;;;;;20.16;30.64;95415.47;5913687;29;109789;-62
2023/04/28 04:29:20;;;;;;;8.90;7.57;;;;;;;20.13;30.89;95411.53;5923231;29;108898;-61
2023/04/28 04:32:23;;;;;;;10.13;7.90;;;;;;;20.13;29.87;95414.19;5915167;29;109052;-63
2023/04/28 04:35:27;;;;;;;6.87;6.27;;;;;;;20.13;29.98;95416.03;5894709;29;108943;-63
2023/04/28 04:38:30;;;;;;;6.10;5.50;;;;;;;20.13;29.89;95413.38;5898703;29;110215;-62
2023/04/28 04:41:34;;;;;;;5.33;4.83;;;;;;;20.13;29.93;95421.38;5900824;29;109267;-63
2023/04/28 04:44:38;;;;;;;4.80;4.40;;;;;;;20.12;29.47;95420.56;5900401;29;109030;-63
2023/04/28 04:47:42;;;;;;;5.90;5.30;;;;;;;20.06;29.67;95420.91;5891304;29;109306;-62
2023/04/28 04:50:47;;;;;;;6.57;4.33;;;;;;;20.01;29.92;95419.13;5904570;29;108885;-62
2023/04/28 04:53:50;;;;;;;5.03;4.60;;;;;;;20.03;28.74;95427.59;5904346;29;109069;-62
2023/04/28 04:56:53;;;;;;;7.60;6.90;;;;;;;19.99;29.21;95431.88;5903952;29;109030;-63
2023/04/28 04:59:57;;;;;;;6.00;5.40;;;;;;;20.01;29.35;95438.50;5893458;29;109235;-74
2023/04/28 05:03:02;;;;;;;4.20;3.90;;;;;;;19.99;29.11;95437.19;5903919;29;108926;-62
2023/04/28 05:06:05;;;;;;;6.10;4.53;;;;;;;20.03;29.01;95440.88;5904236;29;109026;-63
2023/04/28 05:09:09;;;;;;;6.07;4.30;;;;;;;20.02;29.16;95439.31;5899701;29;111375;-63
2023/04/28 05:12:12;;;;;;;4.60;3.30;;;;;;;19.98;29.18;95436.38;5899005;29;109072;-62
2023/04/28 05:15:16;;;;;;;5.63;3.50;;;;;;;20.01;29.08;95451.78;5904203;29;108943;-62
2023/04/28 05:18:20;;;;;;;4.60;3.47;;;;;;;20.02;28.00;95436.63;5904156;29;108989;-62
2023/04/28 05:21:23;;;;;;;4.40;4.00;;;;;;;20.01;28.62;95440.38;5893605;29;109027;-62
2023/04/28 05:24:26;;;;;;;4.80;4.40;;;;;;;20.03;29.19;95432.91;5903812;29;108954;-62
2023/04/28 05:27:29;;;;;;;5.33;4.70;;;;;;;20.03;28.77;95440.88;5904024;29;108968;-62
2023/04/28 05:30:34;;;;;;;5.73;4.83;;;;;;;20.03;28.98;95440.88;5903431;29;108897;-62
2023/04/28 05:33:37;;;;;;;4.27;3.63;;;;;;;20.03;28.86;95438.22;5893588;29;110706;-63
2023/04/28 05:36:40;;;;;;;4.90;3.80;;;;;;;20.10;28.79;95443.19;5903827;29;108979;-62
2023/04/28 05:39:43;;;;;;;4.10;3.40;;;;;;;20.14;27.97;95438.88;5903890;29;109013;-63
2023/04/28 05:42:47;;;;;;;3.60;3.20;;;;;;;20.19;28.40;95429.00;5903668;29;109087;-62
2023/04/28 05:45:51;;;;;;;3.87;3.27;;;;;;;20.25;27.56;95435.06;5892876;29;109028;-62
2023/04/28 05:48:54;;;;;;;5.13;3.23;;;;;;;20.30;28.25;95443.78;5903810;29;108853;-62
2023/04/28 05:51:57;;;;;;;4.40;3.60;;;;;;;20.33;28.26;95437.09;5903852;29;108889;-69
2023/04/28 05:55:00;;;;;;;4.83;4.33;;;;;;;20.38;28.56;95444.22;5897236;29;108975;-65
2023/04/28 05:58:04;;;;;;;4.27;3.40;;;;;;;20.41;28.71;95439.13;5900864;29;109026;-63
2023/04/28 06:01:08;;;;;;;3.23;2.83;;;;;;;20.43;28.83;95442.28;5902485;29;108994;-63
2023/04/28 06:04:11;;;;;;;5.90;3.37;;;;;;;20.46;28.74;95439.06;5903316;29;109083;-63
2023/04/28 06:07:15;;;;;;;4.50;3.23;;;;;;;20.50;28.42;95452.56;5892343;29;108978;-63
2023/04/28 06:10:19;;;;;;;4.40;3.13;;;;;;;20.51;28.21;95441.69;5903225;29;109036;-63
2023/04/28 06:13:22;;;;;;;4.50;3.10;;;;;;;20.54;28.78;95435.78;5902938;29;109026;-63
2023/04/28 06:16:27;;;;;;;4.70;3.23;;;;;;;20.56;28.72;95440.81;5903227;29;108936;-63
2023/04/28 06:19:30;;;;;;;3.30;2.80;;;;;;;20.59;28.23;95443.69;5891716;29;109304;-62
2023/04/28 06:22:33;;;;;;;5.00;2.90;;;;;;;20.60;28.62;95442.59;5902887;29;108973;-63
2023/04/28 06:25:36;;;;;;;3.10;2.80;;;;;;;20.62;28.15;95439.66;5902716;29;108937;-63
2023/04/28 06:28:39;;;;;;;3.33;3.03;;;;;;;20.64;28.54;95442.81;5898626;29;109241;-62
2023/04/28 06:31:44;;;;;;;3.53;2.50;;;;;;;20.67;28.30;95442.28;5897356;29;109513;-62
2023/04/28 06:34:47;;;;;;;3.07;2.80;;;;;;;20.68;28.20;95451.03;5902494;29;108949;-63
2023/04/28 06:37:50;;;;;;;3.40;3.10;;;;;;;20.76;29.31;95445.84;5902789;29;108902;-64
2023/04/28 06:40:53;;;;;;;2.87;2.60;;;;;;;20.79;29.30;95437.28;5892595;29;108975;-63
2023/04/28 06:43:56;;;;;;;4.20;2.90;;;;;;;20.80;28.56;95440.75;5902902;29;108835;-69
2023/04/28 06:47:01;;;;;;;3.40;3.10;;;;;;;20.77;28.15;95428.03;5902592;29;108910;-62
2023/04/28 06:50:05;;;;;;;3.40;3.10;;;;;;;20.74;28.02;95434.72;5902399;29;108894;-62
2023/04/28 06:53:08;;;;;;;6.97;3.33;;;;;;;20.80;28.56;95436.22;5892186;29;108917;-62
2023/04/28 06:56:11;;;;;;;3.93;2.77;;;;;;;20.82;28.42;95423.41;5902441;29;108905;-63
2023/04/28 06:59:14;;;;;;;3.73;3.30;;;;;;;20.84;28.58;95434.59;5902387;29;108901;-63
2023/04/28 07:02:19;;;;;;;3.47;2.73;;;;;;;20.86;28.41;95439.63;5902079;29;108953;-62
2023/04/28 07:05:22;;;;;;;3.03;2.77;;;;;;;20.88;28.35;95442.78;5891550;29;108897;-62
2023/04/28 07:08:25;;;;;;;4.10;2.83;;;;;;;20.89;28.71;95433.72;5901825;29;108847;-62
2023/04/28 07:11:28;;;;;;;3.87;2.70;;;;;;;20.90;28.91;95437.97;5901836;29;109060;-61
2023/04/28 07:14:31;;;;;;;3.17;2.87;;;;;;;20.91;28.44;95436.88;5897070;29;110874;-61
2023/04/28 07:17:36;;;;;;;2.93;2.63;;;;;;;20.87;28.75;95420.72;5898971;29;110815;-63
2023/04/28 07:20:39;;;;;;;2.70;2.40;;;;;;;20.94;28.28;95433.63;5901767;29;108996;-61
2023/04/28 07:23:42;;;;;;;3.50;2.67;;;;;;;20.96;28.71;95420.03;5901925;29;109044;-61
2023/04/28 07:26:46;;;;;;;3.93;2.60;;;;;;;20.97;28.87;95432.25;5891376;29;109003;-61
2023/04/28 07:29:49;;;;;;;3.03;2.73;;;;;;;20.99;28.53;95438.09;5901845;29;108954;-61
2023/04/28 07:32:53;;;;;;;2.73;2.27;;;;;;;20.99;28.46;95422.13;5901706;29;108901;-61
2023/04/28 07:35:56;;;;;;;2.60;2.40;;;;;;;20.96;28.32;95418.16;5901983;29;108810;-65
2023/04/28 07:39:00;;;;;;;2.57;2.37;;;;;;;21.01;28.56;95428.75;5892143;29;109091;-60
2023/04/28 07:42:04;;;;;;;4.50;2.83;;;;;;;20.99;28.33;95422.91;5901738;29;108910;-60
2023/04/28 07:45:08;;;;;;;3.83;2.70;;;;;;;21.03;28.22;95429.25;5901689;29;109043;-62
2023/04/28 07:48:12;;;;;;;3.37;2.30;;;;;;;21.01;28.33;95430.63;5896901;29;108953;-61
2023/04/28 07:51:15;;;;;;;3.73;3.00;;;;;;;21.05;28.16;95429.00;5896752;29;110359;-61
2023/04/28 07:54:19;;;;;;;2.60;2.40;;;;;;;21.04;28.31;95435.38;5901438;29;108962;-61
2023/04/28 07:57:25;;;;;;;2.70;2.50;;;;;;;21.07;28.14;95432.16;5901468;29;108949;-61
2023/04/28 08:00:28;;;;;;;3.53;2.37;;;;;;;21.09;28.64;95427.31;5892028;29;109130;-61
2023/04/28 08:03:33;;;;;;;4.40;2.60;;;;;;;21.09;28.25;95428.13;5901562;29;109057;-61
2023/04/28 08:06:36;;;;;;;2.93;2.63;;;;;;;21.09;28.13;95430.00;5900754;29;108973;-61
2023/04/28 08:09:41;;;;;;;2.37;2.17;;;;;;;21.10;27.98;95426.25;5901448;29;109077;-61
2023/04/28 08:12:45;;;;;;;2.97;2.50;;;;;;;21.12;28.41;95430.19;5891321;29;109206;-63
2023/04/28 08:15:48;;;;;;;2.90;2.60;;;;;;;21.12;28.01;95426.75;5901023;29;108961;-64
2023/04/28 08:18:53;;;;;;;2.40;2.17;;;;;;;21.15;28.36;95426.16;5901068;29;108888;-64
2023/04/28 08:21:56;;;;;;;2.57;2.30;;;;;;;21.17;28.25;95429.31;5900850;29;108979;-64
2023/04/28 08:24:59;;;;;;;3.47;2.50;;;;;;;21.18;28.43;95425.59;5893833;29;108994;-64
2023/04/28 08:28:05;;;;;;;2.50;2.30;;;;;;;21.17;28.14;95427.47;5905097;29;108896;-65
2023/04/28 08:31:08;;;;;;;2.70;2.50;;;;;;;21.22;28.17;95418.63;5905848;29;108943;-65
2023/04/28 08:34:12;;;;;;;2.63;2.27;;;;;;;21.25;27.95;95420.69;5896152;29;109009;-64
2023/04/28 08:37:18;;;;;;;2.83;1.93;;;;;;;21.27;27.91;95417.72;5904944;29;108906;-65
2023/04/28 08:40:23;;;;;;;3.83;2.47;;;;;;;21.26;27.73;95419.59;5904525;29;108902;-65
2023/04/28 08:43:27;;;;;;;3.13;2.83;;;;;;;21.28;27.83;95420.09;5904835;29;108921;-65
2023/04/28 08:46:31;;;;;;;3.23;2.60;;;;;;;21.30;27.62;95411.81;5894501;29;109018;-64
2023/04/28 08:49:37;;;;;;;3.00;2.70;;;;;;;21.31;28.05;95414.19;5904907;29;109166;-65
2023/04/28 08:52:41;;;;;;;4.67;3.03;;;;;;;21.33;28.49;95411.22;5904228;29;108993;-65
2023/04/28 08:55:45;;;;;;;2.90;2.20;;;;;;;21.34;28.30;95404.81;5904535;29;108873;-65
2023/04/28 08:58:50;;;;;;;4.20;2.87;;;;;;;21.34;28.49;95404.81;5893596;29;109083;-65
2023/04/28 09:01:53;;;;;;;2.87;2.43;;;;;;;21.36;28.09;95400.81;5904501;29;108929;-65
2023/04/28 09:04:58;;;;;;;4.90;3.10;;;;;;;21.36;28.12;95400.03;5904638;29;108865;-65
2023/04/28 09:08:02;;;;;;;3.20;2.70;;;;;;;21.36;27.97;95402.69;5898960;29;108964;-66
2023/04/28 09:11:08;;;;;;;2.90;2.30;;;;;;;21.36;28.47;95398.16;5899054;29;109485;-66
2023/04/28 09:14:12;;;;;;;4.57;2.90;;;;;;;21.37;28.54;95388.28;5904768;29;108895;-66
2023/04/28 09:17:16;;;;;;;2.63;2.43;;;;;;;21.36;28.30;95379.53;5903783;29;108968;-66
2023/04/28 09:20:28;;;;;;;3.33;2.30;;;;;;;21.35;28.24;95375.28;5893888;29;108924;-66
2023/04/28 09:23:32;;;;;;;3.70;2.13;;;;;;;21.36;28.23;95379.53;5904519;29;108975;-67
2023/04/28 09:26:49;;;;;;;5.20;2.83;;;;;;;21.35;27.98;95369.97;5904145;29;108917;-67
2023/04/28 09:29:54;;;;;;;2.87;2.30;;;;;;;21.36;27.71;95371.53;5904042;29;108969;-66
2023/04/28 09:33:05;;;;;;;3.03;2.17;;;;;;;21.37;28.00;95373.13;5889268;29;108922;-70
2023/04/28 09:36:11;;;;;;;2.67;2.43;;;;;;;21.37;28.15;95375.78;5903913;29;108938;-64
2023/04/28 09:39:15;;;;;;;2.30;2.10;;;;;;;21.37;28.08;95359.81;5903508;29;108928;-65
2023/04/28 09:42:35;;;;;;;2.30;2.10;;;;;;;21.37;28.54;95359.00;5902521;29;109067;-66
2023/04/28 09:45:41;;;;;;;2.20;2.00;;;;;;;21.37;28.47;95359.81;5898393;29;108915;-66
2023/04/28 09:48:44;;;;;;;2.67;1.90;;;;;;;21.38;28.62;95355.28;5903626;29;108975;-66
2023/04/28 09:51:49;;;;;;;3.37;2.13;;;;;;;21.37;28.06;95343.84;5902885;29;108946;-66
2023/04/28 09:54:54;;;;;;;2.07;1.97;;;;;;;21.38;28.56;95349.94;5892570;29;109234;-65
2023/04/28 09:58:03;;;;;;;3.67;2.03;;;;;;;21.37;28.31;95343.03;5903250;29;108928;-65
2023/04/28 10:01:11;;;;;;;2.20;2.00;;;;;;;21.36;28.48;95336.13;5903167;29;108902;-68
2023/04/28 10:04:15;;;;;;;2.13;1.87;;;;;;;21.39;28.44;95330.22;5903334;29;108955;-66
2023/04/28 10:07:20;;;;;;;2.40;2.20;;;;;;;21.34;28.85;95338.28;5891951;29;108907;-65
2023/04/28 10:10:24;;;;;;;2.10;1.90;;;;;;;21.34;28.42;95328.44;5903281;29;108778;-65
2023/04/28 10:13:27;;;;;;;2.17;1.97;;;;;;;21.32;28.59;95314.63;5903121;29;109667;-66
2023/04/28 10:16:31;;;;;;;2.37;2.17;;;;;;;21.29;28.70;95311.75;5899316;29;108887;-65
2023/04/28 10:19:36;;;;;;;2.27;2.07;;;;;;;21.35;28.13;95318.59;5897126;29;109141;-66
2023/04/28 10:22:57;;;;;;;2.13;1.80;;;;;;;21.26;28.59;95310.47;5903005;29;108879;-67
2023/04/28 10:26:02;;;;;;;2.40;2.20;;;;;;;21.31;28.58;95310.38;5902486;29;108990;-65
2023/04/28 10:29:07;;;;;;;3.93;2.20;;;;;;;21.31;28.49;95318.38;5892249;29;108941;-66
2023/04/28 10:32:21;;;;;;;1.87;1.70;;;;;;;21.28;28.45;95313.63;5902757;29;108993;-66
2023/04/28 10:35:44;;;;;;;2.67;2.20;;;;;;;21.26;28.82;95315.81;5902817;29;109171;-65
2023/04/28 10:39:11;;;;;;;5.37;2.30;;;;;;;21.27;28.60;95306.72;5902535;29;109048;-62
2023/04/28 10:42:52;;;;;;;3.03;1.77;;;;;;;21.26;29.14;95305.16;5896358;29;109256;-60
2023/04/28 10:46:04;;;;;;;2.03;1.90;;;;;;;21.21;29.44;95291.94;5901968;29;108926;-61
2023/04/28 10:49:08;;;;;;;2.40;2.20;;;;;;;21.26;29.04;95291.84;5902873;29;109082;-66
2023/04/28 10:52:44;;;;;;;2.30;2.10;;;;;;;21.25;28.66;95286.81;5891804;29;109014;-62
2023/04/28 10:56:06;;;;;;;2.23;2.03;;;;;;;21.24;28.63;95294.03;5902436;29;108889;-61
2023/04/28 10:59:27;;;;;;;1.80;1.70;;;;;;;21.21;29.13;95281.31;5902028;29;109010;-61
2023/04/28 11:02:44;;;;;;;2.13;1.90;;;;;;;21.20;29.21;95285.84;5896087;29;108790;-61
2023/04/28 11:06:19;;;;;;;2.20;2.00;;;;;;;21.21;28.93;95281.31;5901203;29;109092;-62
2023/04/28 11:09:51;;;;;;;2.20;2.00;;;;;;;21.20;28.98;95272.53;5901685;29;108959;-63
2023/04/28 11:13:32;;;;;;;2.50;2.30;;;;;;;21.17;29.20;95265.13;5902085;29;108946;-60
2023/04/28 11:16:49;;;;;;;2.60;2.40;;;;;;;21.18;29.26;95261.41;5896837;29;108985;-62
2023/04/28 11:19:55;;;;;;;3.10;2.67;;;;;;;21.17;29.52;95259.81;5901811;29;109014;-61
2023/04/28 11:22:59;;;;;;;2.27;1.77;;;;;;;21.15;29.18;95256.63;5901844;29;108888;-61
2023/04/28 11:26:02;;;;;;;2.10;2.00;;;;;;;21.16;29.34;95268.84;5892129;29;109055;-61
2023/04/28 11:29:07;;;;;;;2.40;1.87;;;;;;;21.14;29.25;95262.25;5901648;29;108881;-61
2023/04/28 11:32:10;;;;;;;2.00;1.70;;;;;;;21.09;29.38;95244.50;5901752;29;108934;-61
2023/04/28 11:35:13;;;;;;;1.77;1.67;;;;;;;21.13;29.23;95247.38;5901881;29;108983;-61
2023/04/28 11:38:16;;;;;;;1.80;1.70;;;;;;;21.05;29.25;95229.44;5891378;29;110119;-61
2023/04/28 11:41:20;;;;;;;2.47;2.27;;;;;;;21.09;28.88;95236.53;5901764;29;108891;-61
2023/04/28 11:44:25;;;;;;;2.07;1.87;;;;;;;21.00;29.10;95224.94;5901669;29;109110;-66
2023/04/28 11:47:30;;;;;;;2.00;1.80;;;;;;;20.96;27.70;95225.84;5896907;29;108960;-64
2023/04/28 11:50:39;;;;;;;3.70;1.57;;;;;;;21.08;28.81;95224.31;5895939;29;108992;-63
2023/04/28 11:53:43;;;;;;;2.30;1.90;;;;;;;21.15;28.85;95230.03;5901917;29;108934;-63
2023/04/28 11:56:46;;;;;;;2.17;1.97;;;;;;;21.18;29.11;95223.34;5901953;29;108946;-64
2023/04/28 11:59:51;;;;;;;1.63;1.53;;;;;;;21.18;28.85;95220.69;5894984;29;109050;-63
2023/04/28 12:02:54;;;;;;;3.73;2.07;;;;;;;21.16;28.71;95217.50;5905176;29;108900;-63
2023/04/28 12:05:57;;;;;;;1.70;1.60;;;;;;;21.15;28.53;95213.28;5905147;29;108986;-61
2023/04/28 12:09:03;;;;;;;2.87;2.00;;;;;;;21.12;28.59;95212.00;5904835;29;109018;-60
2023/04/28 12:12:08;;;;;;;2.27;1.73;;;;;;;21.15;28.29;95215.94;5894109;29;108915;-59
2023/04/28 12:15:12;;;;;;;1.70;1.60;;;;;;;21.12;28.06;95205.88;5904863;29;108922;-60
2023/04/28 12:18:18;;;;;;;3.80;1.80;;;;;;;21.09;28.04;95201.94;5905219;29;108962;-60
2023/04/28 12:21:21;;;;;;;2.50;1.70;;;;;;;21.05;28.10;95192.19;5903772;29;108934;-60
2023/04/28 12:24:25;;;;;;;1.90;1.77;;;;;;;21.04;27.91;95190.59;5897355;29;108923;-61
2023/04/28 12:27:30;;;;;;;1.60;1.50;;;;;;;21.05;28.01;95190.31;5905237;29;108928;-64
2023/04/28 12:30:37;;;;;;;2.40;2.00;;;;;;;21.06;27.95;95188.44;5904658;29;109050;-66
2023/04/28 12:33:40;;;;;;;1.97;1.87;;;;;;;21.00;27.80;95179.72;5894452;29;108945;-60
2023/04/28 12:36:45;;;;;;;2.43;2.20;;;;;;;21.05;27.88;95184.22;5904364;29;108861;-63
2023/04/28 12:39:48;;;;;;;2.23;1.87;;;;;;;21.03;27.54;95179.16;5904260;29;108995;-61
2023/04/28 12:42:51;;;;;;;1.93;1.80;;;;;;;21.02;28.03;95176.78;5904231;29;109002;-60
2023/04/28 12:45:56;;;;;;;1.83;1.67;;;;;;;21.01;28.04;95178.66;5895009;29;109323;-61
2023/04/28 12:48:59;;;;;;;2.20;1.80;;;;;;;21.00;27.87;95177.06;5904578;29;108880;-61
2023/04/28 12:52:04;;;;;;;2.30;1.90;;;;;;;20.90;28.02;95154.13;5904168;29;108962;-60
2023/04/28 12:55:08;;;;;;;1.97;1.77;;;;;;;21.00;27.40;95169.09;5904828;29;108916;-61
2023/04/28 12:58:11;;;;;;;2.33;1.93;;;;;;;20.99;27.85;95166.72;5894355;29;108982;-61
2023/04/28 13:01:16;;;;;;;3.40;2.33;;;;;;;20.98;27.31;95163.28;5904185;29;108917;-61
2023/04/28 13:04:19;;;;;;;2.60;2.40;;;;;;;20.98;27.61;95155.28;5903805;29;109065;-61
2023/04/28 13:07:23;;;;;;;4.60;2.50;;;;;;;20.99;27.90;95156.06;5898901;29;109595;-60
2023/04/28 13:10:26;;;;;;;3.77;2.03;;;;;;;20.92;27.71;95143.19;5898197;29;109123;-60
2023/04/28 13:13:29;;;;;;;2.90;2.40;;;;;;;20.94;27.70;95149.00;5903943;29;108963;-60
2023/04/28 13:16:33;;;;;;;2.47;2.27;;;;;;;20.97;27.54;95152.94;5904202;29;108921;-61
2023/04/28 13:19:38;;;;;;;3.20;2.50;;;;;;;;;;5893529;29;108905;-60
2023/04/28 13:22:40;;;;;;;3.57;2.53;;;;;;;20.95;27.53;95144.47;5904233;29;108955;-60
2023/04/28 13:25:44;;;;;;;2.70;2.33;;;;;;;20.93;27.55;95139.44;5903859;29;108955;-60
2023/04/28 13:28:47;;;;;;;4.57;2.50;;;;;;;20.93;27.94;95136.78;5903681;29;108942;-61
2023/04/28 13:31:51;;;;;;;2.60;2.30;;;;;;;20.93;27.58;95152.75;5889712;29;109485;-61
2023/04/28 13:34:55;;;;;;;2.27;2.10;;;;;;;20.93;27.58;95142.09;5903270;29;108908;-60
2023/04/28 13:38:01;;;;;;;2.20;2.10;;;;;;;20.91;27.71;95134.41;5903484;29;109006;-61
2023/04/28 13:41:04;;;;;;;2.17;1.97;;;;;;;20.87;27.46;95132.66;5903577;29;108889;-61
2023/04/28 13:44:08;;;;;;;4.10;2.00;;;;;;;20.92;27.08;95135.19;5893464;29;109128;-61
2023/04/28 13:47:12;;;;;;;1.97;1.87;;;;;;;20.89;27.48;95136.59;5903411;29;109135;-61
2023/04/28 13:50:16;;;;;;;2.37;2.00;;;;;;;20.86;27.23;95120.44;5903678;29;108815;-61
2023/04/28 13:53:19;;;;;;;3.47;2.43;;;;;;;20.89;27.05;95125.16;5896829;29;109222;-61
2023/04/28 13:56:22;;;;;;;2.73;2.23;;;;;;;20.90;27.29;95126.72;5901733;29;109002;-61
2023/04/28 13:59:26;;;;;;;3.07;2.77;;;;;;;20.89;27.02;95119.84;5903429;29;108858;-61
2023/04/28 14:02:30;;;;;;;3.60;3.30;;;;;;;20.88;27.23;95113.72;5904015;29;109052;-60
2023/04/28 14:05:34;;;;;;;3.30;3.10;;;;;;;20.88;27.44;95116.38;5892803;29;109055;-60
2023/04/28 14:08:51;;;;;;;4.30;3.17;;;;;;;20.86;26.90;95110.59;5902993;29;109237;-60
2023/04/28 14:11:55;;;;;;;3.53;3.23;;;;;;;20.87;26.91;95112.16;5903181;29;108958;-61
2023/04/28 14:14:58;;;;;;;4.60;4.20;;;;;;;20.87;27.26;95114.81;5902856;29;108902;-60
2023/04/28 14:18:03;;;;;;;3.77;3.47;;;;;;;20.86;26.92;95118.56;5891966;29;108929;-60
2023/04/28 14:21:07;;;;;;;4.77;4.37;;;;;;;20.86;27.38;95110.59;5901987;29;108918;-60